sensor_id;sensor_type;location;lat;lon;timestamp;temperature;humidity
7694;DHT22;3889;48.162;11.510;2023-04-03T00:01:11;3.00;99.90
7694;DHT22;3889;48.162;11.510;2023-04-03T00:03:39;3.10;99.90
7694;DHT22;3889;48.162;11.510;2023-04-03T00:06:08;3.00;99.90
7694;DHT22;3889;48.162;11.510;2023-04-03T00:08:38;3.10;99.90
7694;DHT22;3889;48.162;11.510;2023-04-03T00:11:07;3.10;99.90
7694;DHT22;3889;48.162;11.510;2023-04-03T00:13:37;3.10;99.90
7694;DHT22;3889;48.162;11.510;2023-04-03T00:16:06;3.10;99.90
7694;DHT22;3889;48.162;11.510;2023-04-03T00:18:34;2.90;99.90
7694;DHT22;3889;48.162;11.510;2023-04-03T00:21:03;2.90;99.90
7694;DHT22;3889;48.162;11.510;2023-04-03T00:23:31;2.90;99.90
7694;DHT22;3889;48.162;11.510;2023-04-03T00:25:59;2.80;99.90
7694;DHT22;3889;48.162;11.510;2023-04-03T00:28:27;3.00;99.90
7694;DHT22;3889;48.162;11.510;2023-04-03T00:30:57;3.00;99.90
7694;DHT22;3889;48.162;11.510;2023-04-03T00:33:25;3.00;99.90
7694;DHT22;3889;48.162;11.510;2023-04-03T00:35:52;3.10;99.90
7694;DHT22;3889;48.162;11.510;2023-04-03T00:38:20;3.10;99.90
7694;DHT22;3889;48.162;11.510;2023-04-03T00:40:49;2.80;99.90
7694;DHT22;3889;48.162;11.510;2023-04-03T00:43:19;2.90;99.90
7694;DHT22;3889;48.162;11.510;2023-04-03T00:45:48;3.00;99.90
7694;DHT22;3889;48.162;11.510;2023-04-03T00:48:20;2.80;99.90
7694;DHT22;3889;48.162;11.510;2023-04-03T00:50:49;2.80;99.90
7694;DHT22;3889;48.162;11.510;2023-04-03T00:53:19;2.90;99.90
7694;DHT22;3889;48.162;11.510;2023-04-03T00:55:50;2.90;99.90
7694;DHT22;3889;48.162;11.510;2023-04-03T00:58:20;2.80;99.90
7694;DHT22;3889;48.162;11.510;2023-04-03T01:00:52;2.70;99.90
7694;DHT22;3889;48.162;11.510;2023-04-03T01:03:25;2.70;99.90
7694;DHT22;3889;48.162;11.510;2023-04-03T01:05:53;2.80;99.90
7694;DHT22;3889;48.162;11.510;2023-04-03T01:08:21;2.70;99.90
7694;DHT22;3889;48.162;11.510;2023-04-03T01:10:49;2.80;99.90
7694;DHT22;3889;48.162;11.510;2023-04-03T01:13:19;2.90;99.90
7694;DHT22;3889;48.162;11.510;2023-04-03T01:15:47;2.90;99.90
7694;DHT22;3889;48.162;11.510;2023-04-03T01:18:15;2.90;99.90
7694;DHT22;3889;48.162;11.510;2023-04-03T01:21:06;2.90;99.90
7694;DHT22;3889;48.162;11.510;2023-04-03T01:26:29;2.90;99.90
7694;DHT22;3889;48.162;11.510;2023-04-03T01:28:59;2.90;99.90
7694;DHT22;3889;48.162;11.510;2023-04-03T01:31:30;2.90;99.90
7694;DHT22;3889;48.162;11.510;2023-04-03T01:34:00;2.90;99.90
7694;DHT22;3889;48.162;11.510;2023-04-03T01:36:30;2.80;99.90
7694;DHT22;3889;48.162;11.510;2023-04-03T01:38:59;2.80;99.90
7694;DHT22;3889;48.162;11.510;2023-04-03T01:41:28;2.80;99.90
7694;DHT22;3889;48.162;11.510;2023-04-03T01:43:56;2.80;99.90
7694;DHT22;3889;48.162;11.510;2023-04-03T01:46:24;2.70;99.90
7694;DHT22;3889;48.162;11.510;2023-04-03T01:48:52;2.80;99.90
7694;DHT22;3889;48.162;11.510;2023-04-03T01:51:21;2.90;99.90
7694;DHT22;3889;48.162;11.510;2023-04-03T01:53:49;2.90;99.90
7694;DHT22;3889;48.162;11.510;2023-04-03T01:56:18;2.90;99.90
7694;DHT22;3889;48.162;11.510;2023-04-03T01:58:46;3.00;99.90
7694;DHT22;3889;48.162;11.510;2023-04-03T02:01:14;3.00;99.90
7694;DHT22;3889;48.162;11.510;2023-04-03T02:03:42;2.90;99.90
7694;DHT22;3889;48.162;11.510;2023-04-03T02:06:10;2.90;99.90
7694;DHT22;3889;48.162;11.510;2023-04-03T02:08:40;2.80;99.90
7694;DHT22;3889;48.162;11.510;2023-04-03T02:11:08;2.70;99.90
7694;DHT22;3889;48.162;11.510;2023-04-03T02:13:36;2.70;99.90
7694;DHT22;3889;48.162;11.510;2023-04-03T02:16:07;2.80;99.90
7694;DHT22;3889;48.162;11.510;2023-04-03T02:18:36;2.80;99.90
7694;DHT22;3889;48.162;11.510;2023-04-03T02:21:04;2.70;99.90
7694;DHT22;3889;48.162;11.510;2023-04-03T02:23:32;2.70;99.90
7694;DHT22;3889;48.162;11.510;2023-04-03T02:26:09;2.90;99.90
7694;DHT22;3889;48.162;11.510;2023-04-03T02:28:38;2.90;99.90
7694;DHT22;3889;48.162;11.510;2023-04-03T02:31:06;2.70;99.90
7694;DHT22;3889;48.162;11.510;2023-04-03T02:33:35;2.80;99.90
7694;DHT22;3889;48.162;11.510;2023-04-03T02:36:04;2.90;99.90
7694;DHT22;3889;48.162;11.510;2023-04-03T02:38:32;2.90;99.90
7694;DHT22;3889;48.162;11.510;2023-04-03T02:41:01;2.90;99.90
7694;DHT22;3889;48.162;11.510;2023-04-03T02:43:30;3.00;99.90
7694;DHT22;3889;48.162;11.510;2023-04-03T02:45:59;2.80;99.90
7694;DHT22;3889;48.162;11.510;2023-04-03T02:48:27;2.90;99.90
7694;DHT22;3889;48.162;11.510;2023-04-03T02:50:55;2.90;99.90
7694;DHT22;3889;48.162;11.510;2023-04-03T02:53:23;2.80;99.90
7694;DHT22;3889;48.162;11.510;2023-04-03T02:55:51;2.80;99.90
7694;DHT22;3889;48.162;11.510;2023-04-03T02:58:18;2.90;99.90
7694;DHT22;3889;48.162;11.510;2023-04-03T03:00:48;2.90;99.90
7694;DHT22;3889;48.162;11.510;2023-04-03T03:03:16;3.00;99.90
7694;DHT22;3889;48.162;11.510;2023-04-03T03:05:43;2.90;99.90
7694;DHT22;3889;48.162;11.510;2023-04-03T03:08:11;2.80;99.90
7694;DHT22;3889;48.162;11.510;2023-04-03T03:10:39;2.90;99.90
7694;DHT22;3889;48.162;11.510;2023-04-03T03:13:07;2.90;99.90
7694;DHT22;3889;48.162;11.510;2023-04-03T03:15:35;3.10;99.90
7694;DHT22;3889;48.162;11.510;2023-04-03T03:18:04;3.00;99.90
7694;DHT22;3889;48.162;11.510;2023-04-03T03:20:32;3.10;99.90
7694;DHT22;3889;48.162;11.510;2023-04-03T03:23:00;3.00;99.90
7694;DHT22;3889;48.162;11.510;2023-04-03T03:25:28;3.00;99.90
7694;DHT22;3889;48.162;11.510;2023-04-03T03:27:56;3.00;99.90
7694;DHT22;3889;48.162;11.510;2023-04-03T03:30:23;3.10;99.90
7694;DHT22;3889;48.162;11.510;2023-04-03T03:32:51;3.10;99.90
7694;DHT22;3889;48.162;11.510;2023-04-03T03:35:20;3.10;99.90
7694;DHT22;3889;48.162;11.510;2023-04-03T03:37:49;3.00;99.90
7694;DHT22;3889;48.162;11.510;2023-04-03T03:40:16;3.10;99.90
7694;DHT22;3889;48.162;11.510;2023-04-03T03:42:44;2.90;99.90
7694;DHT22;3889;48.162;11.510;2023-04-03T03:45:12;3.00;99.90
7694;DHT22;3889;48.162;11.510;2023-04-03T03:47:40;2.90;99.90
7694;DHT22;3889;48.162;11.510;2023-04-03T03:50:08;2.90;99.90
7694;DHT22;3889;48.162;11.510;2023-04-03T03:52:38;2.90;99.90
7694;DHT22;3889;48.162;11.510;2023-04-03T03:55:07;2.80;99.90
7694;DHT22;3889;48.162;11.510;2023-04-03T03:57:34;2.90;99.90
7694;DHT22;3889;48.162;11.510;2023-04-03T04:00:04;3.00;99.90
7694;DHT22;3889;48.162;11.510;2023-04-03T04:02:32;3.00;99.90
7694;DHT22;3889;48.162;11.510;2023-04-03T04:05:00;3.00;99.90
7694;DHT22;3889;48.162;11.510;2023-04-03T04:07:28;3.00;99.90
7694;DHT22;3889;48.162;11.510;2023-04-03T04:09:57;3.10;99.90
7694;DHT22;3889;48.162;11.510;2023-04-03T04:12:25;3.00;99.90
7694;DHT22;3889;48.162;11.510;2023-04-03T04:14:53;3.10;99.90
7694;DHT22;3889;48.162;11.510;2023-04-03T04:17:21;2.90;99.90
7694;DHT22;3889;48.162;11.510;2023-04-03T04:19:50;2.90;99.90
7694;DHT22;3889;48.162;11.510;2023-04-03T04:22:24;2.90;99.90
7694;DHT22;3889;48.162;11.510;2023-04-03T04:24:52;2.90;99.90
7694;DHT22;3889;48.162;11.510;2023-04-03T04:27:21;2.90;99.90
7694;DHT22;3889;48.162;11.510;2023-04-03T04:29:48;2.90;99.90
7694;DHT22;3889;48.162;11.510;2023-04-03T04:32:16;3.00;99.90
7694;DHT22;3889;48.162;11.510;2023-04-03T04:34:44;2.80;99.90
7694;DHT22;3889;48.162;11.510;2023-04-03T04:37:12;2.90;99.90
7694;DHT22;3889;48.162;11.510;2023-04-03T04:39:40;2.90;99.90
7694;DHT22;3889;48.162;11.510;2023-04-03T04:42:07;2.90;99.90
7694;DHT22;3889;48.162;11.510;2023-04-03T04:44:43;2.90;99.90
7694;DHT22;3889;48.162;11.510;2023-04-03T04:47:11;2.90;99.90
7694;DHT22;3889;48.162;11.510;2023-04-03T04:49:39;2.90;99.90
7694;DHT22;3889;48.162;11.510;2023-04-03T04:52:07;3.00;99.90
7694;DHT22;3889;48.162;11.510;2023-04-03T04:54:35;3.00;99.90
7694;DHT22;3889;48.162;11.510;2023-04-03T04:57:03;3.00;99.90
7694;DHT22;3889;48.162;11.510;2023-04-03T04:59:31;3.10;99.90
7694;DHT22;3889;48.162;11.510;2023-04-03T05:02:00;3.20;99.90
7694;DHT22;3889;48.162;11.510;2023-04-03T05:04:28;3.10;99.90
7694;DHT22;3889;48.162;11.510;2023-04-03T05:06:56;3.00;99.90
7694;DHT22;3889;48.162;11.510;2023-04-03T05:09:24;3.10;99.90
7694;DHT22;3889;48.162;11.510;2023-04-03T05:11:52;3.10;99.90
7694;DHT22;3889;48.162;11.510;2023-04-03T05:14:20;3.00;99.90
7694;DHT22;3889;48.162;11.510;2023-04-03T05:16:48;3.00;99.90
7694;DHT22;3889;48.162;11.510;2023-04-03T05:19:21;2.80;99.90
7694;DHT22;3889;48.162;11.510;2023-04-03T05:21:49;2.80;99.90
7694;DHT22;3889;48.162;11.510;2023-04-03T05:24:17;2.90;99.90
7694;DHT22;3889;48.162;11.510;2023-04-03T05:26:44;2.90;99.90
7694;DHT22;3889;48.162;11.510;2023-04-03T05:29:12;2.90;99.90
7694;DHT22;3889;48.162;11.510;2023-04-03T05:31:40;3.00;99.90
7694;DHT22;3889;48.162;11.510;2023-04-03T05:34:08;3.00;99.90
7694;DHT22;3889;48.162;11.510;2023-04-03T05:36:37;3.00;99.90
7694;DHT22;3889;48.162;11.510;2023-04-03T05:39:05;2.90;99.90
7694;DHT22;3889;48.162;11.510;2023-04-03T05:41:33;3.00;99.90
7694;DHT22;3889;48.162;11.510;2023-04-03T05:44:01;3.00;99.90
7694;DHT22;3889;48.162;11.510;2023-04-03T05:46:29;3.00;99.90
7694;DHT22;3889;48.162;11.510;2023-04-03T05:48:57;3.00;99.90
7694;DHT22;3889;48.162;11.510;2023-04-03T05:51:28;2.90;99.90
7694;DHT22;3889;48.162;11.510;2023-04-03T05:54:02;3.00;99.90
7694;DHT22;3889;48.162;11.510;2023-04-03T05:56:30;3.10;99.90
7694;DHT22;3889;48.162;11.510;2023-04-03T05:58:58;3.10;99.90
7694;DHT22;3889;48.162;11.510;2023-04-03T06:01:26;3.10;99.90
7694;DHT22;3889;48.162;11.510;2023-04-03T06:03:54;3.00;99.90
7694;DHT22;3889;48.162;11.510;2023-04-03T06:06:22;3.20;99.90
7694;DHT22;3889;48.162;11.510;2023-04-03T06:08:50;3.10;99.90
7694;DHT22;3889;48.162;11.510;2023-04-03T06:11:19;3.10;99.90
7694;DHT22;3889;48.162;11.510;2023-04-03T06:13:49;3.00;99.90
7694;DHT22;3889;48.162;11.510;2023-04-03T06:16:17;3.20;99.90
7694;DHT22;3889;48.162;11.510;2023-04-03T06:18:45;3.20;99.90
7694;DHT22;3889;48.162;11.510;2023-04-03T06:21:13;3.30;99.90
7694;DHT22;3889;48.162;11.510;2023-04-03T06:23:41;3.30;99.90
7694;DHT22;3889;48.162;11.510;2023-04-03T06:26:09;3.20;99.90
7694;DHT22;3889;48.162;11.510;2023-04-03T06:28:38;3.40;99.90
7694;DHT22;3889;48.162;11.510;2023-04-03T06:31:06;3.30;99.90
7694;DHT22;3889;48.162;11.510;2023-04-03T06:33:34;3.30;99.90
7694;DHT22;3889;48.162;11.510;2023-04-03T06:36:04;3.30;99.90
7694;DHT22;3889;48.162;11.510;2023-04-03T06:38:33;3.40;99.90
7694;DHT22;3889;48.162;11.510;2023-04-03T06:41:01;3.40;99.90
7694;DHT22;3889;48.162;11.510;2023-04-03T06:43:29;3.50;99.90
7694;DHT22;3889;48.162;11.510;2023-04-03T06:45:59;3.50;99.90
7694;DHT22;3889;48.162;11.510;2023-04-03T06:48:26;3.50;99.90
7694;DHT22;3889;48.162;11.510;2023-04-03T06:50:54;3.60;99.90
7694;DHT22;3889;48.162;11.510;2023-04-03T06:53:22;3.60;99.90
7694;DHT22;3889;48.162;11.510;2023-04-03T06:55:50;3.70;99.90
7694;DHT22;3889;48.162;11.510;2023-04-03T06:58:18;3.90;99.90
7694;DHT22;3889;48.162;11.510;2023-04-03T07:00:48;3.80;99.90
7694;DHT22;3889;48.162;11.510;2023-04-03T07:03:17;4.00;99.90
7694;DHT22;3889;48.162;11.510;2023-04-03T07:05:45;4.00;99.90
7694;DHT22;3889;48.162;11.510;2023-04-03T07:08:13;4.00;99.90
7694;DHT22;3889;48.162;11.510;2023-04-03T07:10:41;4.00;99.90
7694;DHT22;3889;48.162;11.510;2023-04-03T07:13:09;4.20;99.90
7694;DHT22;3889;48.162;11.510;2023-04-03T07:15:37;4.20;99.90
7694;DHT22;3889;48.162;11.510;2023-04-03T07:18:05;4.40;99.90
7694;DHT22;3889;48.162;11.510;2023-04-03T07:20:35;4.30;99.90
7694;DHT22;3889;48.162;11.510;2023-04-03T07:23:03;4.40;99.90
7694;DHT22;3889;48.162;11.510;2023-04-03T07:25:31;4.50;99.90
7694;DHT22;3889;48.162;11.510;2023-04-03T07:28:00;4.40;99.90
7694;DHT22;3889;48.162;11.510;2023-04-03T07:30:28;4.40;99.90
7694;DHT22;3889;48.162;11.510;2023-04-03T07:32:56;4.50;99.90
7694;DHT22;3889;48.162;11.510;2023-04-03T07:35:24;4.20;99.90
7694;DHT22;3889;48.162;11.510;2023-04-03T07:37:53;4.20;99.90
7694;DHT22;3889;48.162;11.510;2023-04-03T07:40:21;4.10;99.90
7694;DHT22;3889;48.162;11.510;2023-04-03T07:42:49;4.30;99.90
7694;DHT22;3889;48.162;11.510;2023-04-03T07:45:17;4.30;99.90
7694;DHT22;3889;48.162;11.510;2023-04-03T07:47:45;4.30;99.90
7694;DHT22;3889;48.162;11.510;2023-04-03T07:50:14;4.20;99.90
7694;DHT22;3889;48.162;11.510;2023-04-03T07:52:42;4.30;99.90
7694;DHT22;3889;48.162;11.510;2023-04-03T07:55:12;4.30;99.90
7694;DHT22;3889;48.162;11.510;2023-04-03T07:57:40;4.30;99.90
7694;DHT22;3889;48.162;11.510;2023-04-03T08:00:10;4.60;99.90
7694;DHT22;3889;48.162;11.510;2023-04-03T08:02:38;4.60;99.90
7694;DHT22;3889;48.162;11.510;2023-04-03T08:05:07;4.70;99.90
7694;DHT22;3889;48.162;11.510;2023-04-03T08:07:36;4.80;99.90
7694;DHT22;3889;48.162;11.510;2023-04-03T08:10:05;4.70;99.90
7694;DHT22;3889;48.162;11.510;2023-04-03T08:12:35;4.80;99.90
7694;DHT22;3889;48.162;11.510;2023-04-03T08:15:04;4.60;99.90
7694;DHT22;3889;48.162;11.510;2023-04-03T08:17:32;4.60;99.90
7694;DHT22;3889;48.162;11.510;2023-04-03T08:20:02;4.40;99.90
7694;DHT22;3889;48.162;11.510;2023-04-03T08:22:30;4.40;99.90
7694;DHT22;3889;48.162;11.510;2023-04-03T08:24:58;4.50;99.90
7694;DHT22;3889;48.162;11.510;2023-04-03T08:27:26;4.40;99.90
7694;DHT22;3889;48.162;11.510;2023-04-03T08:29:55;4.30;99.90
7694;DHT22;3889;48.162;11.510;2023-04-03T08:32:23;4.50;99.90
7694;DHT22;3889;48.162;11.510;2023-04-03T08:34:52;4.40;99.90
7694;DHT22;3889;48.162;11.510;2023-04-03T08:37:20;4.60;99.90
7694;DHT22;3889;48.162;11.510;2023-04-03T08:39:48;4.80;99.90
7694;DHT22;3889;48.162;11.510;2023-04-03T08:42:28;4.70;99.90
7694;DHT22;3889;48.162;11.510;2023-04-03T08:45:07;4.70;99.90
7694;DHT22;3889;48.162;11.510;2023-04-03T08:47:38;4.90;99.90
7694;DHT22;3889;48.162;11.510;2023-04-03T08:50:13;4.90;99.90
7694;DHT22;3889;48.162;11.510;2023-04-03T08:52:46;4.90;99.90
7694;DHT22;3889;48.162;11.510;2023-04-03T08:55:22;4.90;99.90
7694;DHT22;3889;48.162;11.510;2023-04-03T08:57:57;4.90;99.90
7694;DHT22;3889;48.162;11.510;2023-04-03T09:00:34;5.20;99.90
7694;DHT22;3889;48.162;11.510;2023-04-03T09:03:12;5.20;99.90
7694;DHT22;3889;48.162;11.510;2023-04-03T09:05:45;5.00;99.90
7694;DHT22;3889;48.162;11.510;2023-04-03T09:08:25;5.00;99.90
7694;DHT22;3889;48.162;11.510;2023-04-03T09:11:04;5.10;99.90
7694;DHT22;3889;48.162;11.510;2023-04-03T09:13:39;4.80;99.90
7694;DHT22;3889;48.162;11.510;2023-04-03T09:16:20;4.70;99.90
7694;DHT22;3889;48.162;11.510;2023-04-03T09:18:54;4.70;99.90
7694;DHT22;3889;48.162;11.510;2023-04-03T09:21:26;4.70;99.90
7694;DHT22;3889;48.162;11.510;2023-04-03T09:23:57;4.90;99.90
7694;DHT22;3889;48.162;11.510;2023-04-03T09:26:30;5.00;99.90
7694;DHT22;3889;48.162;11.510;2023-04-03T09:29:02;5.20;99.90
7694;DHT22;3889;48.162;11.510;2023-04-03T09:31:38;5.40;99.90
7694;DHT22;3889;48.162;11.510;2023-04-03T09:34:19;5.40;99.90
7694;DHT22;3889;48.162;11.510;2023-04-03T09:36:50;5.60;99.90
7694;DHT22;3889;48.162;11.510;2023-04-03T09:39:20;5.60;99.90
7694;DHT22;3889;48.162;11.510;2023-04-03T09:41:59;5.60;99.90
7694;DHT22;3889;48.162;11.510;2023-04-03T09:44:30;5.60;99.90
7694;DHT22;3889;48.162;11.510;2023-04-03T09:46:59;5.40;99.90
7694;DHT22;3889;48.162;11.510;2023-04-03T09:49:44;5.40;99.90
7694;DHT22;3889;48.162;11.510;2023-04-03T09:52:19;5.20;99.90
7694;DHT22;3889;48.162;11.510;2023-04-03T09:54:47;5.20;99.90
7694;DHT22;3889;48.162;11.510;2023-04-03T09:57:15;5.00;99.90
7694;DHT22;3889;48.162;11.510;2023-04-03T09:59:47;5.00;99.90
7694;DHT22;3889;48.162;11.510;2023-04-03T10:02:34;5.10;99.90
7694;DHT22;3889;48.162;11.510;2023-04-03T10:05:04;5.10;99.90
7694;DHT22;3889;48.162;11.510;2023-04-03T10:07:37;5.00;99.90
7694;DHT22;3889;48.162;11.510;2023-04-03T10:10:18;5.20;99.90
7694;DHT22;3889;48.162;11.510;2023-04-03T10:12:47;5.10;99.90
7694;DHT22;3889;48.162;11.510;2023-04-03T10:15:16;5.00;99.90
7694;DHT22;3889;48.162;11.510;2023-04-03T10:17:53;5.00;99.90
7694;DHT22;3889;48.162;11.510;2023-04-03T10:20:27;4.90;99.90
7694;DHT22;3889;48.162;11.510;2023-04-03T10:23:15;4.80;99.90
7694;DHT22;3889;48.162;11.510;2023-04-03T10:25:55;4.60;99.90
7694;DHT22;3889;48.162;11.510;2023-04-03T10:28:31;4.80;99.90
7694;DHT22;3889;48.162;11.510;2023-04-03T10:31:05;4.90;99.90
7694;DHT22;3889;48.162;11.510;2023-04-03T10:33:56;4.90;99.90
7694;DHT22;3889;48.162;11.510;2023-04-03T10:36:36;4.80;99.90
7694;DHT22;3889;48.162;11.510;2023-04-03T10:39:14;5.00;99.90
7694;DHT22;3889;48.162;11.510;2023-04-03T10:41:54;5.10;99.90
7694;DHT22;3889;48.162;11.510;2023-04-03T10:45:00;5.30;99.90
7694;DHT22;3889;48.162;11.510;2023-04-03T10:47:34;5.10;99.90
7694;DHT22;3889;48.162;11.510;2023-04-03T10:50:22;5.20;99.90
7694;DHT22;3889;48.162;11.510;2023-04-03T10:52:55;5.20;99.90
7694;DHT22;3889;48.162;11.510;2023-04-03T10:55:32;5.00;99.90
7694;DHT22;3889;48.162;11.510;2023-04-03T10:58:02;4.80;99.90
7694;DHT22;3889;48.162;11.510;2023-04-03T11:00:36;4.90;99.90
7694;DHT22;3889;48.162;11.510;2023-04-03T11:03:11;4.80;99.90
7694;DHT22;3889;48.162;11.510;2023-04-03T11:05:43;4.80;99.90
7694;DHT22;3889;48.162;11.510;2023-04-03T11:08:25;4.90;99.90
7694;DHT22;3889;48.162;11.510;2023-04-03T11:10:57;4.90;99.90
7694;DHT22;3889;48.162;11.510;2023-04-03T11:13:30;4.90;99.90
7694;DHT22;3889;48.162;11.510;2023-04-03T11:16:00;4.90;99.90
7694;DHT22;3889;48.162;11.510;2023-04-03T11:18:35;5.00;99.90
7694;DHT22;3889;48.162;11.510;2023-04-03T11:21:09;4.90;99.90
7694;DHT22;3889;48.162;11.510;2023-04-03T11:23:40;4.90;99.90
7694;DHT22;3889;48.162;11.510;2023-04-03T11:26:17;4.80;99.90
7694;DHT22;3889;48.162;11.510;2023-04-03T11:28:52;4.90;99.90
7694;DHT22;3889;48.162;11.510;2023-04-03T11:31:29;4.90;99.90
7694;DHT22;3889;48.162;11.510;2023-04-03T11:34:08;4.90;99.90
7694;DHT22;3889;48.162;11.510;2023-04-03T11:36:46;4.80;99.90
7694;DHT22;3889;48.162;11.510;2023-04-03T11:39:20;4.90;99.90
7694;DHT22;3889;48.162;11.510;2023-04-03T11:41:50;5.10;99.90
7694;DHT22;3889;48.162;11.510;2023-04-03T11:44:35;5.20;99.90
7694;DHT22;3889;48.162;11.510;2023-04-03T11:47:05;5.10;99.90
7694;DHT22;3889;48.162;11.510;2023-04-03T11:49:55;5.00;99.90
7694;DHT22;3889;48.162;11.510;2023-04-03T11:53:01;5.10;99.90
7694;DHT22;3889;48.162;11.510;2023-04-03T11:55:53;5.20;99.90
7694;DHT22;3889;48.162;11.510;2023-04-03T11:58:23;5.30;99.90
7694;DHT22;3889;48.162;11.510;2023-04-03T12:00:56;5.40;99.90
7694;DHT22;3889;48.162;11.510;2023-04-03T12:09:59;6.00;99.90
7694;DHT22;3889;48.162;11.510;2023-04-03T12:12:37;5.80;99.90
7694;DHT22;3889;48.162;11.510;2023-04-03T12:15:19;6.00;99.90
7694;DHT22;3889;48.162;11.510;2023-04-03T12:17:49;6.40;99.90
7694;DHT22;3889;48.162;11.510;2023-04-03T12:20:52;6.80;99.90
7694;DHT22;3889;48.162;11.510;2023-04-03T12:23:29;6.70;99.90
7694;DHT22;3889;48.162;11.510;2023-04-03T12:26:19;6.60;99.90
7694;DHT22;3889;48.162;11.510;2023-04-03T12:28:50;6.40;99.90
7694;DHT22;3889;48.162;11.510;2023-04-03T12:31:19;6.70;99.90
7694;DHT22;3889;48.162;11.510;2023-04-03T12:36:49;6.90;99.90
7694;DHT22;3889;48.162;11.510;2023-04-03T12:39:36;7.00;99.90
7694;DHT22;3889;48.162;11.510;2023-04-03T12:42:32;7.30;99.90
7694;DHT22;3889;48.162;11.510;2023-04-03T12:45:10;7.30;99.90
7694;DHT22;3889;48.162;11.510;2023-04-03T12:47:42;7.60;99.90
7694;DHT22;3889;48.162;11.510;2023-04-03T12:50:20;7.40;99.90
7694;DHT22;3889;48.162;11.510;2023-04-03T12:52:54;7.70;99.90
7694;DHT22;3889;48.162;11.510;2023-04-03T12:55:24;8.00;99.90
7694;DHT22;3889;48.162;11.510;2023-04-03T12:57:54;7.80;99.90
7694;DHT22;3889;48.162;11.510;2023-04-03T13:00:29;7.50;99.90
7694;DHT22;3889;48.162;11.510;2023-04-03T13:02:57;7.80;99.90
7694;DHT22;3889;48.162;11.510;2023-04-03T13:05:25;7.80;99.90
7694;DHT22;3889;48.162;11.510;2023-04-03T13:07:58;7.60;99.90
7694;DHT22;3889;48.162;11.510;2023-04-03T13:10:26;7.20;99.90
7694;DHT22;3889;48.162;11.510;2023-04-03T13:12:58;7.00;99.90
7694;DHT22;3889;48.162;11.510;2023-04-03T13:15:28;6.80;99.90
7694;DHT22;3889;48.162;11.510;2023-04-03T13:17:57;6.50;99.90
7694;DHT22;3889;48.162;11.510;2023-04-03T13:20:27;6.30;99.90
7694;DHT22;3889;48.162;11.510;2023-04-03T13:22:58;6.30;99.90
7694;DHT22;3889;48.162;11.510;2023-04-03T13:25:30;6.30;99.90
7694;DHT22;3889;48.162;11.510;2023-04-03T13:28:01;6.10;99.90
7694;DHT22;3889;48.162;11.510;2023-04-03T13:30:41;6.00;99.90
7694;DHT22;3889;48.162;11.510;2023-04-03T13:33:24;6.10;99.90
7694;DHT22;3889;48.162;11.510;2023-04-03T13:35:56;6.10;99.90
7694;DHT22;3889;48.162;11.510;2023-04-03T13:38:26;6.00;99.90
7694;DHT22;3889;48.162;11.510;2023-04-03T13:40:56;6.00;99.90
7694;DHT22;3889;48.162;11.510;2023-04-03T13:43:26;6.00;99.90
7694;DHT22;3889;48.162;11.510;2023-04-03T13:46:04;6.10;99.90
7694;DHT22;3889;48.162;11.510;2023-04-03T13:48:41;6.30;99.90
7694;DHT22;3889;48.162;11.510;2023-04-03T13:51:19;6.20;99.90
7694;DHT22;3889;48.162;11.510;2023-04-03T13:53:50;6.40;99.90
7694;DHT22;3889;48.162;11.510;2023-04-03T13:56:25;6.40;99.90
7694;DHT22;3889;48.162;11.510;2023-04-03T13:59:02;6.40;99.90
7694;DHT22;3889;48.162;11.510;2023-04-03T14:01:40;6.50;99.90
7694;DHT22;3889;48.162;11.510;2023-04-03T14:04:16;6.60;99.90
7694;DHT22;3889;48.162;11.510;2023-04-03T14:06:45;6.50;99.90
7694;DHT22;3889;48.162;11.510;2023-04-03T14:09:14;6.50;99.90
7694;DHT22;3889;48.162;11.510;2023-04-03T14:11:43;6.40;99.90
7694;DHT22;3889;48.162;11.510;2023-04-03T14:14:14;6.40;99.90
7694;DHT22;3889;48.162;11.510;2023-04-03T14:16:44;6.60;99.90
7694;DHT22;3889;48.162;11.510;2023-04-03T14:19:22;6.70;99.90
7694;DHT22;3889;48.162;11.510;2023-04-03T14:21:51;6.70;99.90
7694;DHT22;3889;48.162;11.510;2023-04-03T14:24:20;6.60;99.90
7694;DHT22;3889;48.162;11.510;2023-04-03T14:26:50;6.60;99.90
7694;DHT22;3889;48.162;11.510;2023-04-03T14:29:20;6.50;99.90
7694;DHT22;3889;48.162;11.510;2023-04-03T14:31:49;6.60;99.90
7694;DHT22;3889;48.162;11.510;2023-04-03T14:34:26;6.70;99.90
7694;DHT22;3889;48.162;11.510;2023-04-03T14:36:54;6.80;99.90
7694;DHT22;3889;48.162;11.510;2023-04-03T14:39:21;6.60;99.90
7694;DHT22;3889;48.162;11.510;2023-04-03T14:41:49;6.60;99.90
7694;DHT22;3889;48.162;11.510;2023-04-03T14:44:18;6.70;99.90
7694;DHT22;3889;48.162;11.510;2023-04-03T14:46:47;6.90;99.90
7694;DHT22;3889;48.162;11.510;2023-04-03T14:49:26;7.20;99.90
7694;DHT22;3889;48.162;11.510;2023-04-03T14:51:56;7.40;99.90
7694;DHT22;3889;48.162;11.510;2023-04-03T14:54:24;7.40;99.90
7694;DHT22;3889;48.162;11.510;2023-04-03T14:56:55;7.20;99.80
7694;DHT22;3889;48.162;11.510;2023-04-03T14:59:25;7.10;99.90
7694;DHT22;3889;48.162;11.510;2023-04-03T15:01:54;6.80;99.90
7694;DHT22;3889;48.162;11.510;2023-04-03T15:04:22;6.60;99.90
7694;DHT22;3889;48.162;11.510;2023-04-03T15:06:51;6.40;98.70
7694;DHT22;3889;48.162;11.510;2023-04-03T15:09:22;6.10;99.50
7694;DHT22;3889;48.162;11.510;2023-04-03T15:11:50;6.00;99.90
7694;DHT22;3889;48.162;11.510;2023-04-03T15:14:19;5.90;99.90
7694;DHT22;3889;48.162;11.510;2023-04-03T15:17:04;6.00;99.90
7694;DHT22;3889;48.162;11.510;2023-04-03T15:19:36;6.00;98.40
7694;DHT22;3889;48.162;11.510;2023-04-03T15:22:05;6.00;99.00
7694;DHT22;3889;48.162;11.510;2023-04-03T15:24:32;6.10;98.90
7694;DHT22;3889;48.162;11.510;2023-04-03T15:27:01;6.00;98.80
7694;DHT22;3889;48.162;11.510;2023-04-03T15:29:28;6.10;98.40
7694;DHT22;3889;48.162;11.510;2023-04-03T15:31:56;6.10;98.50
7694;DHT22;3889;48.162;11.510;2023-04-03T15:34:26;6.20;98.60
7694;DHT22;3889;48.162;11.510;2023-04-03T15:36:54;6.10;98.00
7694;DHT22;3889;48.162;11.510;2023-04-03T15:39:22;6.10;98.00
7694;DHT22;3889;48.162;11.510;2023-04-03T15:41:50;6.20;97.10
7694;DHT22;3889;48.162;11.510;2023-04-03T15:44:18;6.50;97.70
7694;DHT22;3889;48.162;11.510;2023-04-03T15:46:47;6.60;97.50
7694;DHT22;3889;48.162;11.510;2023-04-03T15:49:18;6.80;97.20
7694;DHT22;3889;48.162;11.510;2023-04-03T15:51:47;7.30;97.30
7694;DHT22;3889;48.162;11.510;2023-04-03T15:54:16;7.30;96.20
7694;DHT22;3889;48.162;11.510;2023-04-03T15:56:44;7.50;94.60
7694;DHT22;3889;48.162;11.510;2023-04-03T15:59:12;7.10;94.30
7694;DHT22;3889;48.162;11.510;2023-04-03T16:01:40;6.90;94.40
7694;DHT22;3889;48.162;11.510;2023-04-03T16:04:08;6.70;94.40
7694;DHT22;3889;48.162;11.510;2023-04-03T16:06:37;6.50;95.70
7694;DHT22;3889;48.162;11.510;2023-04-03T16:09:07;6.50;95.20
7694;DHT22;3889;48.162;11.510;2023-04-03T16:11:35;6.40;95.90
7694;DHT22;3889;48.162;11.510;2023-04-03T16:14:05;6.30;96.00
7694;DHT22;3889;48.162;11.510;2023-04-03T16:16:33;6.40;95.10
7694;DHT22;3889;48.162;11.510;2023-04-03T16:19:03;6.50;96.70
7694;DHT22;3889;48.162;11.510;2023-04-03T16:21:31;6.50;96.60
7694;DHT22;3889;48.162;11.510;2023-04-03T16:24:00;6.20;96.30
7694;DHT22;3889;48.162;11.510;2023-04-03T16:26:30;6.10;97.50
7694;DHT22;3889;48.162;11.510;2023-04-03T16:28:58;5.80;96.00
7694;DHT22;3889;48.162;11.510;2023-04-03T16:31:26;5.60;96.80
7694;DHT22;3889;48.162;11.510;2023-04-03T16:33:55;5.40;96.40
7694;DHT22;3889;48.162;11.510;2023-04-03T16:36:24;5.30;96.40
7694;DHT22;3889;48.162;11.510;2023-04-03T16:38:52;5.40;97.10